LAN110 SCEL-SCSE
Flight info
| Callsign | LAN110 |
|---|---|
| Flight time | 0h 47m |
| Altitude | 28000 |
| Route | DONTI5B DONTI UQ802 KUGAP KUGAP5 |
| Aircraft | A320/M-SDE3FGHIRWY/LB1 |
Departure
| Time | 2026-04-20 03:15 |
|---|---|
| Airport | Comodoro Arturo Merino Benítez International Airport (SCEL) |
Arrival
| Time | 2026-04-20 04:02 |
|---|---|
| Airport | La Florida Airport (SCSE) |
| Time | Latitude | Longitude | Altitude | Speed | Heading |
|---|---|---|---|---|---|
| 2026-04-20 02:25 | -33.39589 | -70.79219 | 1565 ft | 0 kts | 177° |
| 2026-04-20 03:01 | -33.39587 | -70.79219 | 1564 ft | 2 kts | 177° |
| 2026-04-20 03:02 | -33.39562 | -70.79220 | 1564 ft | 4 kts | 177° |
| 2026-04-20 03:02 | -33.39536 | -70.79221 | 1564 ft | 2 kts | 178° |
| 2026-04-20 03:02 | -33.39515 | -70.79226 | 1564 ft | 4 kts | 139° |
| 2026-04-20 03:02 | -33.39504 | -70.79251 | 1564 ft | 4 kts | 92° |
| 2026-04-20 03:03 | -33.39504 | -70.79265 | 1564 ft | 0 kts | 87° |
| 2026-04-20 03:05 | -33.39502 | -70.79234 | 1564 ft | 9 kts | 87° |
| 2026-04-20 03:06 | -33.39498 | -70.79130 | 1564 ft | 14 kts | 87° |
| 2026-04-20 03:06 | -33.39494 | -70.79010 | 1564 ft | 15 kts | 88° |
| 2026-04-20 03:06 | -33.39479 | -70.78891 | 1564 ft | 14 kts | 52° |
| 2026-04-20 03:06 | -33.39391 | -70.78829 | 1564 ft | 16 kts | 29° |
| 2026-04-20 03:07 | -33.39288 | -70.78796 | 1565 ft | 14 kts | 357° |
| 2026-04-20 03:07 | -33.39185 | -70.78801 | 1564 ft | 14 kts | 358° |
| 2026-04-20 03:07 | -33.39089 | -70.78804 | 1564 ft | 16 kts | 0° |
| 2026-04-20 03:07 | -33.38977 | -70.78813 | 1564 ft | 15 kts | 356° |
| 2026-04-20 03:08 | -33.38880 | -70.78818 | 1564 ft | 15 kts | 357° |
| 2026-04-20 03:08 | -33.38789 | -70.78823 | 1564 ft | 14 kts | 358° |
| 2026-04-20 03:08 | -33.38700 | -70.78827 | 1564 ft | 13 kts | 358° |
| 2026-04-20 03:08 | -33.38601 | -70.78832 | 1564 ft | 12 kts | 358° |
| 2026-04-20 03:09 | -33.38507 | -70.78838 | 1564 ft | 14 kts | 356° |
| 2026-04-20 03:09 | -33.38419 | -70.78843 | 1564 ft | 12 kts | 358° |
| 2026-04-20 03:09 | -33.38342 | -70.78847 | 1564 ft | 10 kts | 358° |
| 2026-04-20 03:09 | -33.38277 | -70.78850 | 1564 ft | 9 kts | 357° |
| 2026-04-20 03:10 | -33.38185 | -70.78855 | 1564 ft | 16 kts | 357° |
| 2026-04-20 03:10 | -33.38080 | -70.78861 | 1564 ft | 14 kts | 357° |
| 2026-04-20 03:10 | -33.37988 | -70.78866 | 1565 ft | 12 kts | 358° |
| 2026-04-20 03:10 | -33.37908 | -70.78870 | 1565 ft | 11 kts | 357° |
| 2026-04-20 03:11 | -33.37837 | -70.78874 | 1565 ft | 10 kts | 357° |
| 2026-04-20 03:11 | -33.37774 | -70.78878 | 1564 ft | 9 kts | 357° |
| 2026-04-20 03:11 | -33.37699 | -70.78881 | 1564 ft | 14 kts | 358° |
| 2026-04-20 03:11 | -33.37631 | -70.78884 | 1564 ft | 13 kts | 358° |
| 2026-04-20 03:12 | -33.37553 | -70.78826 | 1564 ft | 10 kts | 75° |
| 2026-04-20 03:12 | -33.37550 | -70.78801 | 1564 ft | 0 kts | 82° |
| 2026-04-20 03:13 | -33.37550 | -70.78800 | 1564 ft | 1 kts | 82° |
| 2026-04-20 03:13 | -33.37545 | -70.78736 | 1564 ft | 12 kts | 89° |
| 2026-04-20 03:13 | -33.37601 | -70.78672 | 1564 ft | 12 kts | 171° |
| 2026-04-20 03:13 | -33.37638 | -70.78669 | 1565 ft | 0 kts | 178° |
| 2026-04-20 03:14 | -33.37683 | -70.78667 | 1565 ft | 32 kts | 177° |
| 2026-04-20 03:14 | -33.38170 | -70.78640 | 1565 ft | 104 kts | 177° |
| 2026-04-20 03:14 | -33.39087 | -70.78591 | 1565 ft | 157 kts | 177° |
| 2026-04-20 03:14 | -33.40237 | -70.78538 | 2068 ft | 167 kts | 176° |
| 2026-04-20 03:15 | -33.41444 | -70.78478 | 2603 ft | 181 kts | 177° |
| 2026-04-20 03:15 | -33.42764 | -70.78405 | 3010 ft | 199 kts | 178° |
| 2026-04-20 03:15 | -33.44228 | -70.78314 | 3284 ft | 229 kts | 177° |
| 2026-04-20 03:15 | -33.45913 | -70.78211 | 3707 ft | 255 kts | 178° |
| 2026-04-20 03:16 | -33.47717 | -70.78261 | 4498 ft | 264 kts | 194° |
| 2026-04-20 03:16 | -33.49297 | -70.79359 | 5357 ft | 269 kts | 230° |
| 2026-04-20 03:16 | -33.50097 | -70.81368 | 6221 ft | 273 kts | 264° |
| 2026-04-20 03:16 | -33.49932 | -70.83624 | 7110 ft | 274 kts | 286° |
| 2026-04-20 03:17 | -33.49401 | -70.85809 | 8102 ft | 273 kts | 289° |
| 2026-04-20 03:17 | -33.48853 | -70.88001 | 8774 ft | 275 kts | 290° |
| 2026-04-20 03:17 | -33.48304 | -70.90192 | 9753 ft | 274 kts | 291° |
| 2026-04-20 03:17 | -33.47751 | -70.92420 | 10439 ft | 290 kts | 289° |
| 2026-04-20 03:18 | -33.47192 | -70.94826 | 10853 ft | 307 kts | 294° |
| 2026-04-20 03:18 | -33.46254 | -70.97125 | 11607 ft | 308 kts | 307° |
| 2026-04-20 03:18 | -33.44830 | -70.99020 | 12489 ft | 307 kts | 322° |
| 2026-04-20 03:18 | -33.42991 | -71.00297 | 13365 ft | 308 kts | 338° |
| 2026-04-20 03:19 | -33.40948 | -71.01098 | 14220 ft | 310 kts | 341° |
| 2026-04-20 03:19 | -33.38888 | -71.01886 | 14979 ft | 312 kts | 340° |
| 2026-04-20 03:19 | -33.36814 | -71.02688 | 15725 ft | 315 kts | 340° |
| 2026-04-20 03:19 | -33.34723 | -71.03505 | 16410 ft | 317 kts | 339° |
| 2026-04-20 03:20 | -33.32613 | -71.04331 | 17131 ft | 321 kts | 339° |
| 2026-04-20 03:20 | -33.30480 | -71.05166 | 17835 ft | 324 kts | 339° |
| 2026-04-20 03:20 | -33.28354 | -71.05996 | 18540 ft | 327 kts | 338° |
| 2026-04-20 03:20 | -33.26181 | -71.06845 | 19127 ft | 330 kts | 338° |
| 2026-04-20 03:21 | -33.23991 | -71.07701 | 19688 ft | 333 kts | 337° |
| 2026-04-20 03:21 | -33.21777 | -71.08564 | 20275 ft | 336 kts | 337° |
| 2026-04-20 03:21 | -33.19546 | -71.09436 | 20876 ft | 339 kts | 337° |
| 2026-04-20 03:21 | -33.17297 | -71.10318 | 21482 ft | 341 kts | 336° |
| 2026-04-20 03:22 | -33.15037 | -71.11203 | 22066 ft | 343 kts | 336° |
| 2026-04-20 03:22 | -33.12756 | -71.12091 | 22640 ft | 346 kts | 336° |
| 2026-04-20 03:22 | -33.10448 | -71.12990 | 23182 ft | 350 kts | 336° |
| 2026-04-20 03:22 | -33.08126 | -71.13896 | 23748 ft | 352 kts | 336° |
| 2026-04-20 03:23 | -33.05783 | -71.14806 | 24220 ft | 354 kts | 336° |
| 2026-04-20 03:23 | -33.03433 | -71.15717 | 24748 ft | 356 kts | 336° |
| 2026-04-20 03:23 | -33.01073 | -71.16630 | 25232 ft | 357 kts | 336° |
| 2026-04-20 03:23 | -32.98704 | -71.17548 | 25727 ft | 359 kts | 335° |
| 2026-04-20 03:24 | -32.96323 | -71.18457 | 26193 ft | 362 kts | 338° |
| 2026-04-20 03:24 | -32.93816 | -71.18989 | 26641 ft | 373 kts | 347° |
| 2026-04-20 03:24 | -32.91225 | -71.19063 | 27099 ft | 379 kts | 350° |
| 2026-04-20 03:24 | -32.88579 | -71.19112 | 27566 ft | 381 kts | 350° |
| 2026-04-20 03:25 | -32.85924 | -71.19164 | 27976 ft | 382 kts | 350° |
| 2026-04-20 03:25 | -32.80709 | -71.19257 | 28092 ft | 361 kts | 349° |
| 2026-04-20 03:26 | -32.75768 | -71.19344 | 28068 ft | 353 kts | 349° |
| 2026-04-20 03:26 | -32.70863 | -71.19447 | 28090 ft | 353 kts | 349° |
| 2026-04-20 03:27 | -32.65954 | -71.19549 | 28095 ft | 353 kts | 349° |
| 2026-04-20 03:27 | -32.61048 | -71.19644 | 28089 ft | 353 kts | 349° |
| 2026-04-20 03:28 | -32.56123 | -71.19738 | 28106 ft | 354 kts | 349° |
| 2026-04-20 03:28 | -32.48738 | -71.19864 | 28105 ft | 353 kts | 349° |
| 2026-04-20 03:29 | -32.43835 | -71.19949 | 28106 ft | 353 kts | 349° |
| 2026-04-20 03:29 | -32.38925 | -71.20036 | 28105 ft | 353 kts | 349° |
| 2026-04-20 03:30 | -32.34024 | -71.20121 | 28102 ft | 352 kts | 349° |
| 2026-04-20 03:30 | -32.29159 | -71.20216 | 28102 ft | 351 kts | 349° |
| 2026-04-20 03:31 | -32.24267 | -71.20314 | 28063 ft | 351 kts | 349° |
| 2026-04-20 03:31 | -32.19371 | -71.20401 | 28065 ft | 352 kts | 349° |
| 2026-04-20 03:32 | -32.14464 | -71.20483 | 28064 ft | 353 kts | 349° |
| 2026-04-20 03:32 | -32.09547 | -71.20575 | 28068 ft | 353 kts | 349° |
| 2026-04-20 03:33 | -32.04633 | -71.20660 | 28077 ft | 354 kts | 349° |
| 2026-04-20 03:33 | -31.99718 | -71.20749 | 28050 ft | 353 kts | 349° |
| 2026-04-20 03:34 | -31.94804 | -71.20842 | 28060 ft | 353 kts | 349° |
| 2026-04-20 03:34 | -31.89889 | -71.20928 | 28070 ft | 354 kts | 350° |
| 2026-04-20 03:35 | -31.84958 | -71.21016 | 28070 ft | 354 kts | 349° |
| 2026-04-20 03:35 | -31.80038 | -71.21107 | 28069 ft | 354 kts | 349° |
| 2026-04-20 03:36 | -31.75254 | -71.21743 | 28071 ft | 345 kts | 341° |
| 2026-04-20 03:36 | -31.70520 | -71.22758 | 28049 ft | 346 kts | 341° |
| 2026-04-20 03:37 | -31.65784 | -71.23776 | 28055 ft | 347 kts | 341° |
| 2026-04-20 03:37 | -31.61037 | -71.24789 | 28062 ft | 347 kts | 341° |
| 2026-04-20 03:38 | -31.56285 | -71.25796 | 28071 ft | 347 kts | 341° |
| 2026-04-20 03:38 | -31.51523 | -71.26807 | 28072 ft | 347 kts | 341° |
| 2026-04-20 03:39 | -31.46769 | -71.27817 | 28065 ft | 348 kts | 342° |
| 2026-04-20 03:39 | -31.41991 | -71.28830 | 28067 ft | 349 kts | 342° |
| 2026-04-20 03:40 | -31.37206 | -71.29842 | 28075 ft | 349 kts | 342° |
| 2026-04-20 03:40 | -31.32425 | -71.30852 | 28072 ft | 349 kts | 342° |
| 2026-04-20 03:41 | -31.27646 | -71.31862 | 28076 ft | 349 kts | 342° |
| 2026-04-20 03:41 | -31.22904 | -71.32867 | 28053 ft | 349 kts | 342° |
| 2026-04-20 03:42 | -31.18012 | -71.33912 | 28084 ft | 371 kts | 342° |
| 2026-04-20 03:42 | -31.12837 | -71.35011 | 28081 ft | 381 kts | 342° |
| 2026-04-20 03:43 | -31.07602 | -71.36097 | 28081 ft | 382 kts | 343° |
| 2026-04-20 03:43 | -31.02373 | -71.37188 | 28081 ft | 382 kts | 342° |
| 2026-04-20 03:44 | -30.97226 | -71.38262 | 27461 ft | 365 kts | 342° |
| 2026-04-20 03:44 | -30.94747 | -71.38778 | 26516 ft | 360 kts | 343° |
| 2026-04-20 03:44 | -30.92297 | -71.39293 | 25592 ft | 356 kts | 343° |
| 2026-04-20 03:45 | -30.89876 | -71.39803 | 24706 ft | 352 kts | 343° |
| 2026-04-20 03:45 | -30.87479 | -71.40305 | 23853 ft | 348 kts | 343° |
| 2026-04-20 03:45 | -30.85104 | -71.40801 | 22910 ft | 345 kts | 344° |
| 2026-04-20 03:45 | -30.82753 | -71.41294 | 22002 ft | 341 kts | 344° |
| 2026-04-20 03:46 | -30.80430 | -71.41783 | 21140 ft | 337 kts | 345° |
| 2026-04-20 03:46 | -30.78166 | -71.42261 | 20331 ft | 333 kts | 345° |
| 2026-04-20 03:46 | -30.75880 | -71.42740 | 19696 ft | 325 kts | 345° |
| 2026-04-20 03:46 | -30.73733 | -71.43186 | 19306 ft | 310 kts | 345° |
| 2026-04-20 03:47 | -30.71654 | -71.43618 | 18941 ft | 297 kts | 345° |
| 2026-04-20 03:47 | -30.69659 | -71.44032 | 18574 ft | 285 kts | 345° |
| 2026-04-20 03:47 | -30.67710 | -71.44439 | 18214 ft | 285 kts | 345° |
| 2026-04-20 03:47 | -30.65762 | -71.44850 | 17843 ft | 284 kts | 346° |
| 2026-04-20 03:48 | -30.63820 | -71.45258 | 17494 ft | 283 kts | 346° |
| 2026-04-20 03:48 | -30.61885 | -71.45662 | 17154 ft | 282 kts | 346° |
| 2026-04-20 03:48 | -30.59958 | -71.46066 | 16809 ft | 281 kts | 346° |
| 2026-04-20 03:48 | -30.58036 | -71.46469 | 16475 ft | 280 kts | 346° |
| 2026-04-20 03:49 | -30.56119 | -71.46871 | 16133 ft | 280 kts | 347° |
| 2026-04-20 03:49 | -30.54204 | -71.47268 | 15799 ft | 279 kts | 347° |
| 2026-04-20 03:49 | -30.52274 | -71.47496 | 15453 ft | 282 kts | 357° |
| 2026-04-20 03:49 | -30.50305 | -71.47300 | 15076 ft | 285 kts | 2° |
| 2026-04-20 03:50 | -30.48331 | -71.47057 | 14704 ft | 286 kts | 2° |
| 2026-04-20 03:50 | -30.46349 | -71.46812 | 14313 ft | 287 kts | 2° |
| 2026-04-20 03:50 | -30.44356 | -71.46566 | 13926 ft | 289 kts | 3° |
| 2026-04-20 03:50 | -30.42356 | -71.46318 | 13516 ft | 289 kts | 3° |
| 2026-04-20 03:51 | -30.40381 | -71.46074 | 13130 ft | 289 kts | 3° |
| 2026-04-20 03:51 | -30.38384 | -71.45828 | 12734 ft | 288 kts | 4° |
| 2026-04-20 03:51 | -30.36395 | -71.45584 | 12347 ft | 288 kts | 4° |
| 2026-04-20 03:51 | -30.34405 | -71.45339 | 11943 ft | 287 kts | 4° |
| 2026-04-20 03:52 | -30.32421 | -71.45094 | 11641 ft | 283 kts | 4° |
| 2026-04-20 03:52 | -30.30486 | -71.44855 | 11415 ft | 277 kts | 4° |
| 2026-04-20 03:52 | -30.28570 | -71.44620 | 11058 ft | 276 kts | 4° |
| 2026-04-20 03:52 | -30.26661 | -71.44389 | 10709 ft | 275 kts | 4° |
| 2026-04-20 03:53 | -30.24762 | -71.44159 | 10341 ft | 274 kts | 5° |
| 2026-04-20 03:53 | -30.22873 | -71.43928 | 9971 ft | 272 kts | 5° |
| 2026-04-20 03:53 | -30.21000 | -71.43697 | 9534 ft | 270 kts | 5° |
| 2026-04-20 03:53 | -30.19140 | -71.43470 | 8819 ft | 268 kts | 5° |
| 2026-04-20 03:54 | -30.17294 | -71.43246 | 8253 ft | 262 kts | 5° |
| 2026-04-20 03:54 | -30.15519 | -71.43032 | 7842 ft | 251 kts | 5° |
| 2026-04-20 03:54 | -30.13816 | -71.42828 | 7455 ft | 242 kts | 5° |
| 2026-04-20 03:54 | -30.12135 | -71.42627 | 7059 ft | 243 kts | 5° |
| 2026-04-20 03:55 | -30.10450 | -71.42425 | 6665 ft | 244 kts | 5° |
| 2026-04-20 03:55 | -30.08763 | -71.42220 | 6264 ft | 245 kts | 5° |
| 2026-04-20 03:55 | -30.07084 | -71.42013 | 5859 ft | 246 kts | 5° |
| 2026-04-20 03:55 | -30.05381 | -71.41801 | 5481 ft | 245 kts | 5° |
| 2026-04-20 03:56 | -30.03738 | -71.41598 | 5420 ft | 230 kts | 5° |
| 2026-04-20 03:56 | -30.02173 | -71.41409 | 5343 ft | 224 kts | 5° |
| 2026-04-20 03:56 | -30.00629 | -71.41224 | 5251 ft | 223 kts | 5° |
| 2026-04-20 03:56 | -29.99087 | -71.41036 | 5152 ft | 223 kts | 7° |
| 2026-04-20 03:57 | -29.97599 | -71.40593 | 5059 ft | 218 kts | 17° |
| 2026-04-20 03:57 | -29.96185 | -71.40077 | 4961 ft | 209 kts | 17° |
| 2026-04-20 03:57 | -29.94819 | -71.39583 | 4864 ft | 203 kts | 17° |
| 2026-04-20 03:57 | -29.93477 | -71.39101 | 4777 ft | 202 kts | 17° |
| 2026-04-20 03:58 | -29.92127 | -71.38616 | 4517 ft | 205 kts | 17° |
| 2026-04-20 03:58 | -29.90770 | -71.38127 | 4225 ft | 202 kts | 17° |
| 2026-04-20 03:58 | -29.89469 | -71.37559 | 3908 ft | 199 kts | 28° |
| 2026-04-20 03:58 | -29.88365 | -71.36640 | 3621 ft | 195 kts | 44° |
| 2026-04-20 03:59 | -29.87529 | -71.35425 | 3349 ft | 192 kts | 59° |
| 2026-04-20 03:59 | -29.87014 | -71.34022 | 3070 ft | 190 kts | 75° |
| 2026-04-20 03:59 | -29.86835 | -71.32531 | 2801 ft | 187 kts | 90° |
| 2026-04-20 03:59 | -29.86991 | -71.31064 | 2534 ft | 181 kts | 104° |
| 2026-04-20 04:00 | -29.87420 | -71.29783 | 2311 ft | 165 kts | 116° |
| 2026-04-20 04:00 | -29.87910 | -71.28651 | 2063 ft | 151 kts | 116° |
| 2026-04-20 04:00 | -29.88366 | -71.27592 | 1845 ft | 145 kts | 116° |
| 2026-04-20 04:00 | -29.88808 | -71.26566 | 1634 ft | 142 kts | 116° |
| 2026-04-20 04:01 | -29.89241 | -71.25556 | 1433 ft | 140 kts | 116° |
| 2026-04-20 04:01 | -29.89671 | -71.24557 | 1223 ft | 138 kts | 116° |
| 2026-04-20 04:01 | -29.90094 | -71.23572 | 1030 ft | 136 kts | 116° |
| 2026-04-20 04:01 | -29.90515 | -71.22598 | 841 ft | 135 kts | 116° |
| 2026-04-20 04:02 | -29.90934 | -71.21632 | 656 ft | 134 kts | 116° |
| 2026-04-20 04:02 | -29.91338 | -71.20665 | 490 ft | 132 kts | 116° |
| 2026-04-20 04:02 | -29.91668 | -71.19895 | 474 ft | 68 kts | 116° |
| 2026-04-20 04:02 | -29.91774 | -71.19676 | 474 ft | 13 kts | 141° |
| 2026-04-20 04:03 | -29.91772 | -71.19650 | 477 ft | 8 kts | 310° |
| 2026-04-20 04:03 | -29.91727 | -71.19757 | 474 ft | 21 kts | 296° |
| 2026-04-20 04:03 | -29.91656 | -71.19923 | 476 ft | 24 kts | 296° |
| 2026-04-20 04:03 | -29.91602 | -71.20050 | 472 ft | 10 kts | 296° |
| 2026-04-20 04:04 | -29.91601 | -71.20053 | 476 ft | 0 kts | 296° |
| 2026-04-20 04:04 | -29.91597 | -71.20105 | 477 ft | 10 kts | 234° |
| 2026-04-20 04:04 | -29.91640 | -71.20140 | 480 ft | 6 kts | 206° |
| 2026-04-20 04:04 | -29.91671 | -71.20159 | 476 ft | 5 kts | 216° |
| 2026-04-20 04:05 | -29.91663 | -71.20214 | 479 ft | 8 kts | 299° |
| 2026-04-20 04:05 | -29.91632 | -71.20281 | 476 ft | 9 kts | 296° |
| 2026-04-20 04:05 | -29.91644 | -71.20327 | 474 ft | 6 kts | 208° |
| 2026-04-20 04:05 | -29.91664 | -71.20338 | 474 ft | 0 kts | 206° |
| 2026-04-20 04:06 | -29.91665 | -71.20339 | 474 ft | 1 kts | 206° |
| 2026-04-20 04:06 | -29.91666 | -71.20340 | 474 ft | 0 kts | 206° |